createdAt,value
2019-04-10T00:00:02.451Z,101205.93
2019-04-10T00:02:55.634Z,101203.87
2019-04-10T00:05:48.066Z,101203.37
2019-04-10T00:08:40.196Z,101209.64
2019-04-10T00:11:32.398Z,101207.23
2019-04-10T00:14:24.220Z,101209.24
2019-04-10T00:17:16.534Z,101215.52
2019-04-10T00:20:08.064Z,101212.67
2019-04-10T00:23:00.334Z,101215.32
2019-04-10T00:25:52.923Z,101222.56
2019-04-10T00:28:44.632Z,101220.75
2019-04-10T00:31:36.265Z,101218.51
2019-04-10T00:34:27.761Z,101211.32
2019-04-10T00:37:23.968Z,101214.64
2019-04-10T00:40:12.664Z,101217.02
2019-04-10T00:43:04.789Z,101217.28
2019-04-10T00:45:56.539Z,101217.92
2019-04-10T00:48:48.204Z,101218.31
2019-04-10T00:51:39.849Z,101215.61
2019-04-10T00:54:31.542Z,101220.02
2019-04-10T00:57:23.580Z,101215.22
2019-04-10T01:00:15.534Z,101221.94
2019-04-10T01:03:07.529Z,101224.64
2019-04-10T01:06:00.012Z,101225.30
2019-04-10T01:08:51.601Z,101225.11
2019-04-10T01:11:43.417Z,101228.16
2019-04-10T01:14:35.877Z,101226.09
2019-04-10T01:17:28.539Z,101225.28
2019-04-10T01:20:20.080Z,101225.70
2019-04-10T01:23:11.919Z,101226.67
2019-04-10T01:26:05.124Z,101221.44
2019-04-10T01:28:57.493Z,101229.30
2019-04-10T01:31:48.890Z,101232.48
2019-04-10T01:34:41.217Z,101229.15
2019-04-10T01:37:47.659Z,101240.08
2019-04-10T01:40:27.055Z,101235.02
2019-04-10T01:43:20.053Z,101241.66
2019-04-10T01:46:12.020Z,101237.56
2019-04-10T01:49:03.816Z,101230.97
2019-04-10T01:51:55.464Z,101239.94
2019-04-10T01:54:47.369Z,101238.53
2019-04-10T01:57:39.061Z,101239.31
2019-04-10T02:00:32.869Z,101243.61
2019-04-10T02:03:24.290Z,101239.95
2019-04-10T02:06:16.646Z,101245.88
2019-04-10T02:09:11.366Z,101242.09
2019-04-10T02:12:04.019Z,101240.08
2019-04-10T02:14:56.493Z,101243.11
2019-04-10T02:17:48.683Z,101238.91
2019-04-10T02:20:40.511Z,101239.92
2019-04-10T02:23:31.899Z,101244.83
2019-04-10T02:26:25.558Z,101247.52
2019-04-10T02:29:17.664Z,101245.20
2019-04-10T02:32:10.282Z,101245.39
2019-04-10T02:35:03.643Z,101256.59
2019-04-10T02:37:56.116Z,101254.19
2019-04-10T02:40:50.097Z,101264.55
2019-04-10T02:43:42.949Z,101266.68
2019-04-10T02:46:34.482Z,101264.20
2019-04-10T02:49:28.069Z,101268.55
2019-04-10T02:52:20.273Z,101270.67
2019-04-10T02:55:12.086Z,101268.41
2019-04-10T02:58:03.835Z,101265.08
2019-04-10T03:00:56.328Z,101269.51
2019-04-10T03:03:50.256Z,101271.00
2019-04-10T03:06:42.980Z,101271.09
2019-04-10T03:09:49.410Z,101273.44
2019-04-10T03:12:28.573Z,101269.68
2019-04-10T03:15:23.100Z,101271.90
2019-04-10T03:18:14.841Z,101267.67
2019-04-10T03:21:06.891Z,101273.11
2019-04-10T03:23:58.228Z,101270.02
2019-04-10T03:26:49.975Z,101277.05
2019-04-10T03:29:42.572Z,101285.70
2019-04-10T03:32:59.686Z,101280.38
2019-04-10T03:35:49.467Z,101282.91
2019-04-10T03:38:52.734Z,101282.84
2019-04-10T03:41:34.973Z,101279.73
2019-04-10T03:44:27.092Z,101284.63
2019-04-10T03:47:19.569Z,101282.20
2019-04-10T03:50:11.187Z,101282.27
2019-04-10T03:53:03.026Z,101283.26
2019-04-10T03:55:54.402Z,101281.61
2019-04-10T03:58:47.499Z,101284.48
2019-04-10T04:01:39.049Z,101281.00
2019-04-10T04:04:31.292Z,101282.23
2019-04-10T04:07:25.979Z,101298.69
2019-04-10T04:10:16.381Z,101286.17
2019-04-10T04:13:07.746Z,101287.44
2019-04-10T04:16:00.184Z,101294.64
2019-04-10T04:18:51.819Z,101293.03
2019-04-10T04:21:43.937Z,101291.02
2019-04-10T04:24:35.775Z,101290.78
2019-04-10T04:27:29.239Z,101300.41
2019-04-10T04:30:20.694Z,101299.53
2019-04-10T04:33:13.008Z,101304.28
2019-04-10T04:36:04.875Z,101302.25
2019-04-10T04:38:57.680Z,101309.41
2019-04-10T04:41:50.083Z,101306.62
2019-04-10T04:44:41.839Z,101301.77
2019-04-10T04:47:33.374Z,101308.09
2019-04-10T04:50:24.791Z,101319.73
2019-04-10T04:53:16.402Z,101321.56
2019-04-10T04:56:07.793Z,101312.92
2019-04-10T04:58:59.472Z,101317.16
2019-04-10T05:01:52.856Z,101322.68
2019-04-10T05:04:44.455Z,101332.35
2019-04-10T05:07:35.989Z,101339.30
2019-04-10T05:10:27.508Z,101334.02
2019-04-10T05:13:19.019Z,101346.86
2019-04-10T05:16:10.625Z,101350.64
2019-04-10T05:19:01.997Z,101348.83
2019-04-10T05:21:53.988Z,101352.61
2019-04-10T05:24:46.699Z,101352.16
2019-04-10T05:27:39.255Z,101352.33
2019-04-10T05:30:31.341Z,101359.09
2019-04-10T05:33:24.718Z,101367.28
2019-04-10T05:36:16.105Z,101366.15
2019-04-10T05:39:09.203Z,101371.45
2019-04-10T05:42:02.409Z,101372.17
2019-04-10T05:44:54.683Z,101381.16
2019-04-10T05:47:46.859Z,101382.84
2019-04-10T05:50:38.203Z,101383.73
2019-04-10T05:53:29.750Z,101391.84
2019-04-10T05:56:22.403Z,101388.42
2019-04-10T05:59:14.681Z,101392.69
2019-04-10T06:02:06.783Z,101391.41
2019-04-10T06:04:59.999Z,101392.08
2019-04-10T06:07:51.662Z,101388.58
2019-04-10T06:10:43.681Z,101387.06
2019-04-10T06:13:36.721Z,101393.66
2019-04-10T06:16:30.223Z,101396.26
2019-04-10T06:19:22.087Z,101395.84
2019-04-10T06:22:14.643Z,101399.25
2019-04-10T06:25:09.204Z,101396.83
2019-04-10T06:28:01.064Z,101395.84
2019-04-10T06:30:52.784Z,101402.77
2019-04-10T06:33:44.480Z,101407.22
2019-04-10T06:36:36.086Z,101403.29
2019-04-10T06:39:28.814Z,101402.47
2019-04-10T06:42:20.773Z,101404.97
2019-04-10T06:45:12.495Z,101401.25
2019-04-10T06:48:04.075Z,101408.17
2019-04-10T06:50:55.664Z,101403.73
2019-04-10T06:53:59.437Z,101400.22
2019-04-10T06:56:41.076Z,101402.86
2019-04-10T06:59:32.655Z,101405.23
2019-04-10T07:02:28.398Z,101408.23
2019-04-10T07:05:19.563Z,101409.08
2019-04-10T07:08:16.364Z,101403.99
2019-04-10T07:11:09.027Z,101405.16
2019-04-10T07:13:58.521Z,101409.28
2019-04-10T07:16:50.835Z,101403.58
2019-04-10T07:19:44.351Z,101414.72
2019-04-10T07:22:36.675Z,101417.02
2019-04-10T07:25:28.034Z,101415.83
2019-04-10T07:28:19.576Z,101411.92
2019-04-10T07:31:11.657Z,101419.13
2019-04-10T07:34:03.623Z,101428.23
2019-04-10T07:36:56.094Z,101431.53
2019-04-10T07:39:48.894Z,101435.99
2019-04-10T07:42:42.981Z,101428.23
2019-04-10T07:45:35.652Z,101436.33
2019-04-10T07:48:27.502Z,101445.22
2019-04-10T07:51:19.538Z,101447.44
2019-04-10T07:54:11.773Z,101445.16
2019-04-10T07:57:04.326Z,101444.80
2019-04-10T07:59:56.726Z,101454.70
2019-04-10T08:02:49.164Z,101449.21
2019-04-10T08:05:41.808Z,101445.36
2019-04-10T08:08:34.110Z,101449.30
2019-04-10T08:11:26.112Z,101447.09
2019-04-10T08:14:18.020Z,101448.03
2019-04-10T08:17:10.025Z,101450.64
2019-04-10T08:20:01.770Z,101451.30
2019-04-10T08:22:53.904Z,101453.97
2019-04-10T08:25:45.381Z,101463.97
2019-04-10T08:28:37.032Z,101467.15
2019-04-10T08:31:28.759Z,101466.81
2019-04-10T08:34:21.576Z,101479.20
2019-04-10T08:37:14.522Z,101482.40
2019-04-10T08:40:09.484Z,101476.84
2019-04-10T08:43:02.109Z,101464.08
2019-04-10T08:45:55.095Z,101461.82
2019-04-10T08:48:47.637Z,101471.44
2019-04-10T08:51:39.588Z,101466.94
2019-04-10T08:54:32.151Z,101470.83
2019-04-10T08:57:25.652Z,101471.74
2019-04-10T09:00:18.632Z,101461.75
2019-04-10T09:03:10.791Z,101464.52
2019-04-10T09:06:02.898Z,101463.27
2019-04-10T09:08:54.656Z,101479.19
2019-04-10T09:11:46.662Z,101484.28
2019-04-10T09:14:38.165Z,101488.05
2019-04-10T09:17:29.575Z,101491.37
2019-04-10T09:20:21.077Z,101487.77
2019-04-10T09:23:41.013Z,101490.35
2019-04-10T09:26:13.636Z,101495.98
2019-04-10T09:29:06.822Z,101500.52
2019-04-10T09:32:04.405Z,101499.12
2019-04-10T09:35:20.430Z,101501.87
2019-04-10T09:38:14.627Z,101499.17
2019-04-10T09:41:15.376Z,101499.69
2019-04-10T09:44:12.317Z,101511.73
2019-04-10T09:47:09.897Z,101511.86
2019-04-10T09:50:08.039Z,101507.61
2019-04-10T09:53:04.591Z,101503.71
2019-04-10T09:55:58.919Z,101506.96
2019-04-10T09:58:56.654Z,101507.19
2019-04-10T10:01:55.034Z,101511.45
2019-04-10T10:04:50.416Z,101510.52
2019-04-10T10:07:43.038Z,101508.31
2019-04-10T10:10:37.186Z,101512.03
2019-04-10T10:13:33.926Z,101511.52
2019-04-10T10:16:25.730Z,101507.55
2019-04-10T10:19:18.279Z,101513.83
2019-04-10T10:22:09.786Z,101517.53
2019-04-10T10:25:01.238Z,101514.34
2019-04-10T10:27:52.824Z,101511.26
2019-04-10T10:30:44.468Z,101509.25
2019-04-10T10:33:36.179Z,101496.08
2019-04-10T10:36:36.643Z,101503.07
2019-04-10T10:39:21.315Z,101504.87
2019-04-10T10:42:13.972Z,101508.57
2019-04-10T10:45:06.819Z,101513.59
2019-04-10T10:47:58.896Z,101507.07
2019-04-10T10:50:50.752Z,101502.23
2019-04-10T10:53:42.140Z,101509.33
2019-04-10T10:56:34.169Z,101518.44
2019-04-10T10:59:27.243Z,101516.08
2019-04-10T11:02:19.266Z,101516.69
2019-04-10T11:05:10.956Z,101515.33
2019-04-10T11:08:02.766Z,101523.44
2019-04-10T11:10:57.204Z,101521.81
2019-04-10T11:13:48.490Z,101517.89
2019-04-10T11:16:41.053Z,101513.28
2019-04-10T11:19:33.049Z,101516.83
2019-04-10T11:22:26.128Z,101519.91
2019-04-10T11:25:19.579Z,101523.12
2019-04-10T11:28:12.522Z,101517.78
2019-04-10T11:31:04.828Z,101526.86
2019-04-10T11:33:57.170Z,101528.15
2019-04-10T11:37:11.272Z,101524.64
2019-04-10T11:42:37.081Z,101527.56
2019-04-10T11:45:37.529Z,101514.08
2019-04-10T11:48:23.000Z,101519.16
2019-04-10T11:51:15.030Z,101514.72
2019-04-10T11:54:12.072Z,101516.62
2019-04-10T11:57:03.224Z,101516.98
2019-04-10T11:59:54.495Z,101514.34
2019-04-10T12:02:49.691Z,101519.17
2019-04-10T12:05:42.202Z,101514.76
2019-04-10T12:09:01.685Z,101519.88
2019-04-10T12:11:27.063Z,101515.03
2019-04-10T12:14:19.407Z,101515.88
2019-04-10T12:17:11.679Z,101512.93
2019-04-10T12:20:04.722Z,101513.67
2019-04-10T12:22:56.707Z,101519.89
2019-04-10T12:25:49.267Z,101530.27
2019-04-10T12:28:42.231Z,101520.44
2019-04-10T12:31:34.625Z,101515.46
2019-04-10T12:34:26.507Z,101515.42
2019-04-10T12:37:19.485Z,101516.48
2019-04-10T12:40:11.925Z,101510.96
2019-04-10T12:43:03.472Z,101526.46
2019-04-10T12:45:55.132Z,101530.62
2019-04-10T12:48:47.241Z,101536.41
2019-04-10T12:51:38.837Z,101541.66
2019-04-10T12:54:30.406Z,101537.94
2019-04-10T12:57:23.072Z,101537.66
2019-04-10T13:00:18.411Z,101536.55
2019-04-10T13:03:11.172Z,101539.70
2019-04-10T13:06:02.664Z,101529.05
2019-04-10T13:09:03.641Z,101533.52
2019-04-10T13:11:47.365Z,101525.80
2019-04-10T13:14:39.750Z,101522.83
2019-04-10T13:17:31.659Z,101520.33
2019-04-10T13:20:24.020Z,101520.08
2019-04-10T13:23:16.661Z,101525.53
2019-04-10T13:26:10.869Z,101525.20
2019-04-10T13:29:03.635Z,101522.38
2019-04-10T13:31:55.880Z,101516.31
2019-04-10T13:34:47.711Z,101516.19
2019-04-10T13:37:38.937Z,101525.02
2019-04-10T13:40:30.381Z,101522.85
2019-04-10T13:43:22.167Z,101523.05
2019-04-10T13:46:13.983Z,101521.47
2019-04-10T13:49:06.043Z,101512.58
2019-04-10T13:51:57.411Z,101510.52
2019-04-10T13:54:49.044Z,101515.00
2019-04-10T13:57:40.576Z,101523.46
2019-04-10T14:00:39.626Z,101526.80
2019-04-10T14:03:30.448Z,101529.58
2019-04-10T14:06:21.761Z,101531.32
2019-04-10T14:09:34.586Z,101530.41
2019-04-10T14:12:14.374Z,101531.43
2019-04-10T14:15:09.731Z,101528.66
2019-04-10T14:18:01.968Z,101529.29
2019-04-10T14:20:53.610Z,101535.48
2019-04-10T14:23:45.279Z,101542.87
2019-04-10T14:26:58.765Z,101539.93
2019-04-10T14:29:51.064Z,101550.34
2019-04-10T14:32:42.956Z,101548.81
2019-04-10T14:35:35.598Z,101542.41
2019-04-10T14:38:27.369Z,101542.03
2019-04-10T14:41:20.031Z,101557.33
2019-04-10T14:44:12.439Z,101548.09
2019-04-10T14:47:04.441Z,101536.42
2019-04-10T14:49:56.974Z,101534.94
2019-04-10T14:52:50.276Z,101537.28
2019-04-10T14:55:41.846Z,101549.33
2019-04-10T14:58:34.294Z,101536.75
2019-04-10T15:01:28.350Z,101553.47
2019-04-10T15:04:21.367Z,101549.00
2019-04-10T15:07:14.273Z,101559.39
2019-04-10T15:10:06.140Z,101559.27
2019-04-10T15:13:07.399Z,101552.60
2019-04-10T15:15:51.079Z,101556.39
2019-04-10T15:18:43.733Z,101556.93
2019-04-10T15:21:35.385Z,101546.53
2019-04-10T15:24:27.935Z,101554.79
2019-04-10T15:27:19.550Z,101558.05
2019-04-10T15:30:11.181Z,101574.98
2019-04-10T15:33:02.595Z,101591.89
2019-04-10T15:35:53.973Z,101578.72
2019-04-10T15:38:46.320Z,101588.36
2019-04-10T15:41:37.933Z,101590.79
2019-04-10T15:44:30.496Z,101600.38
2019-04-10T15:47:23.403Z,101600.05
2019-04-10T15:50:15.872Z,101602.20
2019-04-10T15:53:07.823Z,101597.58
2019-04-10T15:55:59.262Z,101600.13
2019-04-10T15:58:52.019Z,101601.77
2019-04-10T16:01:43.939Z,101598.41
2019-04-10T16:04:35.837Z,101602.44
2019-04-10T16:07:27.767Z,101604.23
2019-04-10T16:10:39.245Z,101608.44
2019-04-10T16:13:36.759Z,101603.84
2019-04-10T16:16:53.215Z,101599.47
2019-04-10T16:20:04.005Z,101600.31
2019-04-10T16:23:24.121Z,101612.35
2019-04-10T16:26:16.839Z,101610.91
2019-04-10T16:29:09.611Z,101611.42
2019-04-10T16:32:02.102Z,101614.33
2019-04-10T16:34:54.630Z,101624.62
2019-04-10T16:37:47.375Z,101618.39
2019-04-10T16:40:40.145Z,101628.16
2019-04-10T16:43:32.816Z,101628.12
2019-04-10T16:46:24.443Z,101630.48
2019-04-10T16:49:16.898Z,101629.89
2019-04-10T16:52:09.144Z,101631.53
2019-04-10T16:55:01.015Z,101636.52
2019-04-10T16:57:54.586Z,101638.45
2019-04-10T17:00:47.485Z,101639.87
2019-04-10T17:03:40.110Z,101646.20
2019-04-10T17:06:32.516Z,101649.69
2019-04-10T17:09:26.971Z,101652.80
2019-04-10T17:12:19.846Z,101653.56
2019-04-10T17:15:12.205Z,101660.73
2019-04-10T17:18:04.791Z,101664.14
2019-04-10T17:20:57.236Z,101666.64
2019-04-10T17:23:51.039Z,101659.23
2019-04-10T17:26:43.430Z,101669.57
2019-04-10T17:29:36.850Z,101673.29
2019-04-10T17:32:29.199Z,101672.44
2019-04-10T17:35:23.302Z,101675.31
2019-04-10T17:38:16.204Z,101682.22
2019-04-10T17:41:09.050Z,101681.09
2019-04-10T17:44:02.563Z,101686.54
2019-04-10T17:46:53.945Z,101692.48
2019-04-10T17:49:45.409Z,101698.85
2019-04-10T17:52:38.179Z,101698.30
2019-04-10T17:55:29.840Z,101696.41
2019-04-10T17:58:21.391Z,101700.23
2019-04-10T18:01:16.721Z,101701.66
2019-04-10T18:04:08.088Z,101702.91
2019-04-10T18:06:59.651Z,101706.34
2019-04-10T18:09:51.506Z,101713.34
2019-04-10T18:12:43.833Z,101717.02
2019-04-10T18:15:35.840Z,101718.38
2019-04-10T18:18:27.590Z,101725.52
2019-04-10T18:21:18.801Z,101729.53
2019-04-10T18:24:10.211Z,101734.08
2019-04-10T18:27:02.358Z,101741.42
2019-04-10T18:29:55.121Z,101743.41
2019-04-10T18:32:47.579Z,101752.49
2019-04-10T18:35:39.308Z,101754.25
2019-04-10T18:38:30.371Z,101763.20
2019-04-10T18:41:22.123Z,101761.98
2019-04-10T18:44:13.541Z,101769.20
2019-04-10T18:47:05.194Z,101776.86
2019-04-10T18:49:56.986Z,101773.56
2019-04-10T18:52:49.765Z,101782.55
2019-04-10T18:55:41.359Z,101781.23
2019-04-10T18:58:40.164Z,101790.47
2019-04-10T19:01:49.903Z,101801.91
2019-04-10T19:04:47.912Z,101813.31
2019-04-10T19:07:40.790Z,101816.33
2019-04-10T19:10:32.648Z,101817.27
2019-04-10T19:13:24.827Z,101824.93
2019-04-10T19:16:17.351Z,101829.57
2019-04-10T19:19:10.328Z,101839.70
2019-04-10T19:22:02.539Z,101842.96
2019-04-10T19:24:54.455Z,101842.12
2019-04-10T19:27:46.531Z,101845.52
2019-04-10T19:30:45.719Z,101851.38
2019-04-10T19:33:39.338Z,101850.34
2019-04-10T19:36:32.837Z,101857.45
2019-04-10T19:39:24.482Z,101858.24
2019-04-10T19:42:17.440Z,101863.06
2019-04-10T19:45:09.864Z,101866.61
2019-04-10T19:48:01.488Z,101870.76
2019-04-10T19:50:53.910Z,101874.00
2019-04-10T19:53:46.731Z,101876.94
2019-04-10T19:56:40.514Z,101881.03
2019-04-10T19:59:31.963Z,101880.22
2019-04-10T20:02:24.435Z,101890.66
2019-04-10T20:05:16.965Z,101892.10
2019-04-10T20:08:09.312Z,101889.27
2019-04-10T20:11:02.563Z,101893.52
2019-04-10T20:13:54.692Z,101895.55
2019-04-10T20:16:49.279Z,101897.02
2019-04-10T20:19:41.088Z,101904.66
2019-04-10T20:22:33.370Z,101905.65
2019-04-10T20:25:26.129Z,101905.89
2019-04-10T20:28:17.972Z,101914.11
2019-04-10T20:31:13.648Z,101915.52
2019-04-10T20:34:05.857Z,101921.84
2019-04-10T20:36:58.299Z,101923.84
2019-04-10T20:39:51.629Z,101924.09
2019-04-10T20:42:44.522Z,101936.58
2019-04-10T20:45:36.070Z,101939.23
2019-04-10T20:48:28.669Z,101942.36
2019-04-10T20:51:20.717Z,101940.86
2019-04-10T20:54:12.764Z,101948.41
2019-04-10T20:57:04.955Z,101948.41
2019-04-10T20:59:59.417Z,101952.63
2019-04-10T21:02:51.331Z,101953.30
2019-04-10T21:05:42.709Z,101959.75
2019-04-10T21:08:34.334Z,101955.95
2019-04-10T21:11:25.613Z,101954.48
2019-04-10T21:14:16.966Z,101958.38
2019-04-10T21:17:08.778Z,101960.33
2019-04-10T21:20:00.551Z,101959.95
2019-04-10T21:22:51.873Z,101965.07
2019-04-10T21:25:43.516Z,101965.28
2019-04-10T21:28:37.065Z,101964.97
2019-04-10T21:31:56.762Z,101967.35
2019-04-10T21:34:48.632Z,101968.47
2019-04-10T21:37:40.362Z,101979.91
2019-04-10T21:40:32.683Z,101981.05
2019-04-10T21:43:24.496Z,101980.85
2019-04-10T21:46:16.492Z,101981.38
2019-04-10T21:49:07.963Z,101985.05
2019-04-10T21:51:59.994Z,101983.32
2019-04-10T21:54:55.955Z,101984.98
2019-04-10T21:57:45.201Z,101994.52
2019-04-10T22:00:54.328Z,101990.21
2019-04-10T22:03:45.878Z,101988.98
2019-04-10T22:07:09.753Z,101991.80
2019-04-10T22:10:22.154Z,101993.41
2019-04-10T22:13:13.756Z,101997.98
2019-04-10T22:16:06.706Z,101992.03
2019-04-10T22:18:58.230Z,101995.50
2019-04-10T22:21:50.200Z,101992.17
2019-04-10T22:24:42.633Z,101995.10
2019-04-10T22:27:34.124Z,102001.38
2019-04-10T22:30:25.494Z,101999.63
2019-04-10T22:33:18.036Z,102003.37
2019-04-10T22:36:10.792Z,102007.08
2019-04-10T22:39:04.734Z,102008.51
2019-04-10T22:41:57.217Z,102011.45
2019-04-10T22:44:49.714Z,102014.75
2019-04-10T22:47:41.445Z,102016.67
2019-04-10T22:50:34.474Z,102021.05
2019-04-10T22:53:25.934Z,102023.05
2019-04-10T22:56:17.308Z,102025.95
2019-04-10T22:59:08.587Z,102027.58
2019-04-10T23:02:07.231Z,102036.97
2019-04-10T23:04:55.660Z,102036.45
2019-04-10T23:07:47.858Z,102036.34
2019-04-10T23:10:41.375Z,102038.66
2019-04-10T23:13:32.634Z,102042.08
2019-04-10T23:16:24.210Z,102048.67
2019-04-10T23:19:16.104Z,102049.27
2019-04-10T23:22:09.204Z,102048.63
2019-04-10T23:25:02.758Z,102051.61
2019-04-10T23:27:56.336Z,102050.44
2019-04-10T23:30:48.860Z,102048.98
2019-04-10T23:33:41.880Z,102053.19
2019-04-10T23:36:34.023Z,102054.83
2019-04-10T23:39:25.375Z,102053.81
2019-04-10T23:42:17.081Z,102061.88
2019-04-10T23:45:09.574Z,102060.95
2019-04-10T23:48:01.045Z,102065.80
2019-04-10T23:50:52.659Z,102065.27
2019-04-10T23:53:44.766Z,102066.42
2019-04-10T23:56:37.784Z,102069.52
2019-04-10T23:59:30.877Z,102068.23
